Time;durP1;ratioP1;P1;durP2;ratioP2;P2;SDS_P1;SDS_P2;PMS_P1;PMS_P2;Temp;Humidity;BMP_temperature;BMP_pressure;BME280_temperature;BME280_humidity;BME280_pressure;Samples;Min_cycle;Max_cycle;Signal;HPM_P1;HPM_P2
2021/12/27 00:02:21;;;;;;;20.83;6.80;;;;;;;-6.12;70.91;99938.92;1676488;83;21168;-47
2021/12/27 00:04:49;;;;;;;17.67;6.17;;;;;;;-6.06;70.89;99943.85;1667248;84;21067;-47
2021/12/27 00:07:17;;;;;;;13.67;6.10;;;;;;;-6.04;70.85;99943.05;1662706;84;21130;-49
2021/12/27 00:09:45;;;;;;;19.40;6.93;;;;;;;-6.03;70.87;99945.20;1661426;84;21081;-51
2021/12/27 00:12:11;;;;;;;14.93;4.77;;;;;;;-6.03;70.89;99951.76;1657845;84;21149;-51
2021/12/27 00:14:38;;;;;;;16.23;6.00;;;;;;;-6.01;70.95;99948.75;1684205;83;21475;-50
2021/12/27 00:17:06;;;;;;;9.97;4.33;;;;;;;-5.99;71.02;99949.25;1677503;83;21113;-51
2021/12/27 00:19:34;;;;;;;17.63;5.33;;;;;;;-5.96;71.11;99951.95;1665075;84;21106;-48
2021/12/27 00:22:00;;;;;;;13.03;4.80;;;;;;;-5.95;71.09;99956.30;1648971;84;21169;-48
2021/12/27 00:24:26;;;;;;;17.40;5.67;;;;;;;-5.94;71.14;99960.70;1663651;84;21072;-51
2021/12/27 00:26:53;;;;;;;13.87;5.53;;;;;;;-5.92;71.18;99959.00;1673582;83;21095;-50
2021/12/27 00:29:20;;;;;;;14.60;4.53;;;;;;;-5.90;71.22;99961.23;1672940;83;22312;-50
2021/12/27 00:31:47;;;;;;;16.23;4.80;;;;;;;-5.86;71.30;99962.13;1677502;83;21145;-51
2021/12/27 00:34:13;;;;;;;14.63;5.50;;;;;;;-5.83;71.41;99953.03;1668634;83;21544;-48
2021/12/27 00:36:40;;;;;;;9.13;4.03;;;;;;;-5.80;71.37;99957.92;1668871;83;21477;-49
2021/12/27 00:39:06;;;;;;;14.90;4.87;;;;;;;-5.77;71.44;99955.34;1665198;84;21745;-49
2021/12/27 00:41:33;;;;;;;14.90;4.83;;;;;;;-5.74;71.51;99959.77;1667897;84;21157;-48
2021/12/27 00:44:00;;;;;;;15.13;5.00;;;;;;;-5.68;71.59;99962.50;1670366;83;21805;-50
2021/12/27 00:46:26;;;;;;;15.67;4.07;;;;;;;-5.64;71.47;99963.46;1668011;83;21133;-50
2021/12/27 00:48:52;;;;;;;11.10;4.40;;;;;;;-5.60;71.52;99962.22;1666499;84;21125;-50
2021/12/27 00:51:18;;;;;;;15.67;3.63;;;;;;;-5.55;71.47;99961.91;1664932;83;21082;-50
2021/12/27 00:53:45;;;;;;;12.13;3.30;;;;;;;-5.51;71.36;99952.34;1666633;84;21488;-50
2021/12/27 00:56:11;;;;;;;14.77;3.93;;;;;;;-5.51;71.29;99955.84;1665514;83;21017;-49
2021/12/27 00:58:38;;;;;;;8.47;3.17;;;;;;;-5.51;71.26;99953.23;1672959;83;21032;-49
2021/12/27 01:01:04;;;;;;;11.87;4.23;;;;;;;-5.49;71.33;99956.77;1672619;83;20926;-49
2021/12/27 01:03:31;;;;;;;18.83;5.33;;;;;;;-5.47;71.28;99959.00;1705874;81;20958;-51
2021/12/27 01:05:57;;;;;;;15.73;4.90;;;;;;;-5.45;71.25;99952.05;1708796;81;21183;-51
2021/12/27 01:08:24;;;;;;;13.07;4.20;;;;;;;-5.45;71.23;99957.30;1682139;83;20974;-49
2021/12/27 01:13:39;;;;;;;16.50;4.93;;;;;;;-5.43;71.25;99954.67;1707682;81;20986;-51
2021/12/27 01:18:33;;;;;;;15.07;5.30;;;;;;;-5.40;71.18;99961.30;1707952;81;21116;-50
2021/12/27 01:20:59;;;;;;;12.07;4.77;;;;;;;-5.37;71.19;99962.26;1699890;81;21065;-49
2021/12/27 01:23:26;;;;;;;11.77;5.27;;;;;;;-5.33;71.13;99964.48;1708431;81;21351;-50
2021/12/27 01:25:52;;;;;;;16.47;4.70;;;;;;;-5.32;71.05;99965.38;1704514;81;21613;-48
2021/12/27 01:28:19;;;;;;;15.03;5.57;;;;;;;-5.34;70.99;99973.22;1705529;81;21057;-48
2021/12/27 01:30:49;;;;;;;13.57;4.97;;;;;;;-5.36;71.06;99974.95;1704497;81;21827;-49
2021/12/27 01:33:18;;;;;;;13.63;4.63;;;;;;;-5.37;71.17;99978.42;1669060;83;21041;-49
2021/12/27 01:35:44;;;;;;;18.27;6.93;;;;;;;-5.35;71.23;99984.14;1712767;81;21433;-50
2021/12/27 01:38:12;;;;;;;15.13;5.73;;;;;;;-5.33;71.23;99981.55;1714809;81;21573;-49
2021/12/27 01:40:39;;;;;;;16.97;6.17;;;;;;;-5.29;71.20;99986.44;1708841;81;21448;-49
2021/12/27 01:43:11;;;;;;;15.37;6.23;;;;;;;-5.29;71.13;99983.39;1716702;81;22052;-51
2021/12/27 01:45:41;;;;;;;17.20;5.97;;;;;;;-5.29;71.18;99976.83;1715337;81;21077;-47
2021/12/27 01:48:08;;;;;;;13.17;5.07;;;;;;;-5.28;71.28;99981.65;1708227;81;21087;-51
2021/12/27 01:50:40;;;;;;;14.97;5.13;;;;;;;-5.27;71.35;99977.71;1708048;81;21097;-50
2021/12/27 01:53:06;;;;;;;12.03;4.57;;;;;;;-5.22;71.33;99977.81;1710125;81;21069;-50
2021/12/27 01:55:33;;;;;;;10.93;4.33;;;;;;;-5.19;71.33;99975.26;1711067;81;21155;-50
2021/12/27 01:58:00;;;;;;;10.33;3.30;;;;;;;-5.19;71.42;99977.88;1709618;81;21093;-51
2021/12/27 02:00:26;;;;;;;9.97;3.90;;;;;;;-5.13;71.54;99980.61;1708557;81;21065;-50
2021/12/27 02:02:53;;;;;;;13.17;4.03;;;;;;;-5.09;71.51;99988.97;1675750;83;22169;-51
2021/12/27 02:05:19;;;;;;;16.80;4.63;;;;;;;-5.08;71.56;99982.88;1673139;83;21700;-50
2021/12/27 02:07:46;;;;;;;11.63;4.17;;;;;;;-5.08;71.58;99986.38;1653093;84;21533;-49
2021/12/27 02:10:13;;;;;;;9.07;4.30;;;;;;;-5.08;71.60;99980.25;1652820;84;21158;-52
2021/12/27 02:12:43;;;;;;;10.23;3.80;;;;;;;-5.07;71.71;99978.08;1673217;83;21064;-49
2021/12/27 02:15:10;;;;;;;14.47;4.40;;;;;;;-5.08;71.72;99977.20;1677032;83;21101;-51
2021/12/27 02:17:41;;;;;;;12.27;3.10;;;;;;;-5.08;71.78;99985.50;1648450;84;21107;-49
2021/12/27 02:20:18;;;;;;;9.80;3.67;;;;;;;-5.10;71.85;99976.28;1679493;83;21121;-49
2021/12/27 02:22:46;;;;;;;10.23;2.97;;;;;;;-5.06;71.99;99979.42;1675627;83;20958;-51
2021/12/27 02:25:13;;;;;;;9.73;2.20;;;;;;;-5.04;72.00;99975.52;1676166;83;21116;-52
2021/12/27 02:27:43;;;;;;;7.07;2.53;;;;;;;-5.00;72.21;99977.33;1675848;83;20930;-51
2021/12/27 02:30:13;;;;;;;7.50;1.90;;;;;;;-4.98;72.25;99978.25;1679461;83;21390;-48
2021/12/27 02:32:57;;;;;;;5.70;1.47;;;;;;;-4.97;72.32;99978.70;1677883;83;21144;-51
2021/12/27 02:35:27;;;;;;;6.33;1.83;;;;;;;-4.98;72.43;99974.30;1673072;83;21113;-52
2021/12/27 02:37:55;;;;;;;5.83;2.00;;;;;;;-5.00;72.56;99976.02;1704710;81;21233;-51
2021/12/27 02:40:24;;;;;;;6.40;1.67;;;;;;;-5.04;72.61;99976.84;1708596;81;21105;-51
2021/12/27 02:42:58;;;;;;;3.23;1.17;;;;;;;-5.04;72.77;99977.72;1703508;81;21137;-50
2021/12/27 02:45:26;;;;;;;3.47;1.40;;;;;;;-5.02;72.92;99983.01;1663061;83;21220;-51
2021/12/27 02:47:53;;;;;;;6.23;2.17;;;;;;;-5.05;72.90;99975.95;1671014;83;21503;-51
2021/12/27 02:50:19;;;;;;;5.90;1.77;;;;;;;-5.14;73.03;99978.41;1703502;81;21101;-50
2021/12/27 02:52:46;;;;;;;7.00;1.97;;;;;;;-5.23;73.27;99984.80;1707325;81;21013;-50
2021/12/27 02:55:15;;;;;;;5.67;2.17;;;;;;;-5.36;73.39;99985.45;1703568;81;21057;-50
2021/12/27 02:57:43;;;;;;;3.70;1.50;;;;;;;-5.43;73.81;99989.66;1710011;81;21156;-50
2021/12/27 03:00:15;;;;;;;4.80;1.60;;;;;;;-5.43;74.00;99994.02;1709702;81;20950;-51
2021/12/27 03:02:44;;;;;;;5.23;2.53;;;;;;;-5.39;74.17;99995.87;1675655;83;20969;-49
2021/12/27 03:05:12;;;;;;;6.73;2.00;;;;;;;-5.37;74.11;99995.05;1702382;81;21805;-50
2021/12/27 03:07:39;;;;;;;6.17;1.67;;;;;;;-5.35;74.17;99995.05;1709485;81;20933;-50
2021/12/27 03:10:09;;;;;;;6.43;1.97;;;;;;;-5.31;74.33;99998.21;1707984;81;21276;-50
2021/12/27 03:12:35;;;;;;;4.97;1.40;;;;;;;-5.23;74.33;99996.61;1705857;81;21735;-50
2021/12/27 03:15:01;;;;;;;6.13;2.03;;;;;;;-5.19;74.24;99998.88;1709316;81;21493;-50
2021/12/27 03:17:28;;;;;;;7.97;2.00;;;;;;;-5.20;74.19;100001.05;1670821;83;20983;-50
2021/12/27 03:19:54;;;;;;;10.53;2.80;;;;;;;-5.22;74.25;100006.26;1658587;84;20955;-50
2021/12/27 03:22:20;;;;;;;6.77;1.87;;;;;;;-5.24;74.22;100002.71;1708607;81;21728;-50
2021/12/27 03:24:47;;;;;;;8.10;3.47;;;;;;;-5.25;74.31;100005.30;1710317;81;20891;-50
2021/12/27 03:27:13;;;;;;;8.03;2.83;;;;;;;-5.27;74.34;100003.95;1712234;81;21535;-50
2021/12/27 03:29:39;;;;;;;9.97;3.23;;;;;;;-5.31;74.39;100007.39;1710578;81;21421;-49
2021/12/27 03:32:06;;;;;;;6.60;2.10;;;;;;;-5.34;74.54;100018.70;1707153;81;21418;-50
2021/12/27 03:34:41;;;;;;;8.03;2.30;;;;;;;-5.36;74.57;100024.80;1714982;81;21366;-49
2021/12/27 03:37:03;;;;;;;9.97;2.27;;;;;;;-5.41;74.70;100027.31;1676098;83;20933;-50
2021/12/27 03:39:29;;;;;;;5.13;1.80;;;;;;;-5.43;74.82;100029.02;1674388;83;20917;-49
2021/12/27 03:41:55;;;;;;;9.83;2.27;;;;;;;-5.44;74.90;100035.54;1657584;84;20983;-50
2021/12/27 03:44:22;;;;;;;6.30;2.37;;;;;;;-5.43;74.99;100033.37;1657759;84;20900;-50
2021/12/27 03:46:48;;;;;;;6.83;2.33;;;;;;;-5.40;75.11;100029.52;1660092;84;21119;-50
2021/12/27 03:49:16;;;;;;;5.80;1.77;;;;;;;-5.34;75.16;100033.56;1679423;83;21489;-50
2021/12/27 03:51:43;;;;;;;7.10;3.03;;;;;;;-5.30;75.17;100038.03;1671533;83;21039;-50
2021/12/27 03:54:10;;;;;;;10.50;2.13;;;;;;;-5.28;75.12;100029.77;1672488;83;20986;-50
2021/12/27 03:56:36;;;;;;;9.60;3.87;;;;;;;-5.25;75.11;100028.92;1671204;83;21007;-50
2021/12/27 03:59:21;;;;;;;7.83;2.90;;;;;;;-5.23;75.09;100038.59;1671578;84;22383;-50
2021/12/27 04:01:37;;;;;;;7.97;3.08;;;;;;;-5.19;75.14;100040.87;1668024;83;21472;-50
2021/12/27 04:04:03;;;;;;;6.33;3.33;;;;;;;-5.17;75.06;100043.06;1676634;83;21064;-49
2021/12/27 04:06:30;;;;;;;9.00;3.23;;;;;;;-5.16;75.01;100038.28;1671012;83;21106;-50
2021/12/27 04:08:58;;;;;;;9.67;3.93;;;;;;;-5.16;75.01;100043.53;1672954;84;20990;-50
2021/12/27 04:11:24;;;;;;;8.00;3.00;;;;;;;-5.14;75.09;100044.02;1672212;83;22329;-50
2021/12/27 04:13:51;;;;;;;4.97;2.57;;;;;;;-5.11;75.07;100048.03;1673502;83;21069;-50
2021/12/27 04:16:17;;;;;;;8.90;2.60;;;;;;;-5.11;74.98;100043.20;1671573;83;21099;-49
2021/12/27 04:18:44;;;;;;;8.77;3.27;;;;;;;-5.12;74.96;100044.95;1677446;83;21613;-50
2021/12/27 04:21:11;;;;;;;5.67;2.77;;;;;;;-5.11;75.00;100053.70;1674030;83;21291;-50
2021/12/27 04:23:37;;;;;;;8.63;2.60;;;;;;;-5.08;74.97;100057.68;1672924;83;22237;-50
2021/12/27 04:26:04;;;;;;;9.30;2.97;;;;;;;-5.07;74.94;100056.83;1673780;83;21092;-52
2021/12/27 04:28:32;;;;;;;11.27;3.40;;;;;;;-5.08;74.92;100059.88;1675497;83;21045;-50
2021/12/27 04:30:58;;;;;;;9.47;3.10;;;;;;;-5.07;74.92;100061.66;1671696;83;21795;-49
2021/12/27 04:33:25;;;;;;;7.23;3.93;;;;;;;-5.08;75.00;100065.13;1674488;83;21136;-50
2021/12/27 04:35:51;;;;;;;7.17;3.13;;;;;;;-5.03;75.00;100070.48;1666942;83;22435;-50
2021/12/27 04:38:17;;;;;;;4.27;2.03;;;;;;;-5.02;74.93;100077.05;1669184;84;21615;-50
2021/12/27 04:40:46;;;;;;;7.67;2.57;;;;;;;-4.99;74.88;100078.86;1654717;84;21054;-50
2021/12/27 04:43:17;;;;;;;7.53;3.00;;;;;;;-4.98;74.87;100085.45;1715155;82;20918;-50
2021/12/27 04:45:44;;;;;;;6.77;3.27;;;;;;;-4.99;74.81;100077.12;1706775;82;21968;-50
2021/12/27 04:48:10;;;;;;;6.23;2.37;;;;;;;-4.96;74.85;100072.36;1705740;82;21122;-50
2021/12/27 04:50:37;;;;;;;5.57;2.50;;;;;;;-4.94;74.73;100077.65;1703895;82;21089;-50
2021/12/27 04:53:05;;;;;;;5.57;2.47;;;;;;;-4.93;74.62;100078.11;1664302;84;21052;-50
2021/12/27 04:55:34;;;;;;;7.53;3.27;;;;;;;-4.98;74.50;100080.63;1669636;84;20959;-50
2021/12/27 04:58:01;;;;;;;10.73;3.50;;;;;;;-5.00;74.57;100083.22;1668132;84;21089;-50
2021/12/27 05:00:28;;;;;;;10.77;4.00;;;;;;;-5.02;74.56;100078.36;1668030;84;21146;-50
2021/12/27 05:02:54;;;;;;;8.70;3.23;;;;;;;-5.03;74.61;100091.06;1707226;82;21100;-49
2021/12/27 05:05:20;;;;;;;7.17;2.73;;;;;;;-5.03;74.67;100095.00;1700668;82;21076;-50
2021/12/27 05:07:48;;;;;;;6.07;2.00;;;;;;;-5.00;74.80;100099.40;1701995;82;21114;-50
2021/12/27 05:10:16;;;;;;;8.77;3.70;;;;;;;-4.97;74.73;100100.78;1701948;82;21180;-51
2021/12/27 05:12:44;;;;;;;8.17;3.77;;;;;;;-4.97;74.65;100100.78;1698977;82;21629;-50
2021/12/27 05:15:11;;;;;;;9.47;3.30;;;;;;;-4.99;74.64;100102.06;1666542;84;21511;-50
2021/12/27 05:17:37;;;;;;;8.23;3.73;;;;;;;-5.00;74.67;100108.59;1699205;82;21620;-50
2021/12/27 05:20:05;;;;;;;8.07;3.73;;;;;;;-5.02;74.72;100122.14;1707549;82;20883;-50
2021/12/27 05:22:32;;;;;;;9.77;3.70;;;;;;;-5.06;74.80;100122.48;1674388;84;21081;-50
2021/12/27 05:24:58;;;;;;;10.27;4.73;;;;;;;-5.07;74.82;100121.14;1667244;84;21887;-50
2021/12/27 05:27:24;;;;;;;8.37;3.57;;;;;;;-5.07;74.84;100124.66;1665533;84;21065;-50
2021/12/27 05:29:51;;;;;;;7.80;3.80;;;;;;;-5.03;74.89;100133.48;1672439;84;21076;-50
2021/12/27 05:32:17;;;;;;;10.80;4.33;;;;;;;-5.04;74.92;100135.22;1700564;82;21137;-50
2021/12/27 05:34:44;;;;;;;10.97;3.53;;;;;;;-5.06;74.90;100136.92;1706365;82;21081;-50
2021/12/27 05:37:10;;;;;;;8.97;4.50;;;;;;;-5.07;74.99;100137.77;1670162;83;23312;-50
2021/12/27 05:39:36;;;;;;;15.37;6.27;;;;;;;-5.05;74.98;100139.13;1709028;82;21045;-50
2021/12/27 05:42:04;;;;;;;7.53;3.50;;;;;;;-5.05;74.98;100137.81;1705696;82;21382;-50
2021/12/27 05:44:31;;;;;;;15.27;5.00;;;;;;;-5.05;75.00;100142.64;1670639;83;21078;-50
2021/12/27 05:46:57;;;;;;;10.93;4.50;;;;;;;-5.05;74.95;100143.06;1711008;81;21062;-50
2021/12/27 05:49:23;;;;;;;7.50;2.50;;;;;;;-5.06;74.99;100146.11;1711121;81;21151;-50
2021/12/27 05:51:50;;;;;;;11.30;5.00;;;;;;;-5.05;74.99;100147.00;1714046;82;21026;-51
2021/12/27 05:54:17;;;;;;;8.87;5.07;;;;;;;-5.08;75.01;100146.50;1716844;82;21133;-49
2021/12/27 05:56:44;;;;;;;17.37;10.70;;;;;;;-5.08;75.11;100149.13;1679183;83;21068;-50
2021/12/27 05:59:12;;;;;;;11.80;5.47;;;;;;;-5.08;75.17;100152.17;1658411;84;21549;-50
2021/12/27 06:01:39;;;;;;;13.23;6.90;;;;;;;-5.07;75.18;100157.89;1660251;84;23165;-50
2021/12/27 06:04:06;;;;;;;12.73;5.73;;;;;;;-5.08;75.19;100157.42;1670041;84;21415;-50
2021/12/27 06:06:32;;;;;;;12.00;5.33;;;;;;;-5.10;75.23;100156.08;1613440;85;22597;-50
2021/12/27 06:08:59;;;;;;;9.60;4.53;;;;;;;-5.09;75.21;100160.90;1689538;82;21080;-50
2021/12/27 06:11:27;;;;;;;13.10;4.70;;;;;;;-5.10;75.24;100162.64;1719098;82;21054;-50
2021/12/27 06:13:54;;;;;;;7.90;4.13;;;;;;;-5.08;75.25;100173.17;1712267;81;22395;-50
2021/12/27 06:16:20;;;;;;;7.17;3.97;;;;;;;-5.08;75.25;100172.75;1669898;83;21660;-50
2021/12/27 06:21:16;;;;;;;12.60;6.07;;;;;;;-5.02;75.27;100176.80;1862859;75;26150;-52
2021/12/27 06:23:43;;;;;;;9.93;5.30;;;;;;;-5.03;75.30;100175.48;1781063;79;21000;-52
2021/12/27 06:26:09;;;;;;;8.30;4.07;;;;;;;-5.02;75.27;100179.89;1799356;78;22247;-52
2021/12/27 06:28:36;;;;;;;11.07;3.87;;;;;;;-5.01;75.29;100173.33;1784331;78;21467;-52
2021/12/27 06:31:02;;;;;;;10.43;4.57;;;;;;;-5.00;75.30;100177.73;1760034;78;20891;-51
2021/12/27 06:33:29;;;;;;;8.03;3.53;;;;;;;-5.01;75.27;100175.06;1782580;79;20985;-52
2021/12/27 06:35:56;;;;;;;8.77;3.83;;;;;;;-5.01;75.27;100182.94;1782246;79;20949;-51
2021/12/27 06:38:22;;;;;;;7.03;3.23;;;;;;;-5.03;75.28;100191.23;1779799;79;21143;-51
2021/12/27 06:40:51;;;;;;;6.90;2.70;;;;;;;-5.05;75.33;100195.56;1783066;79;20933;-51
2021/12/27 06:43:17;;;;;;;6.60;3.27;;;;;;;-5.08;75.33;100192.86;1783823;79;21366;-50
2021/12/27 06:45:44;;;;;;;8.53;2.03;;;;;;;-5.10;75.38;100190.63;1783548;79;20921;-51
2021/12/27 06:48:11;;;;;;;8.30;2.83;;;;;;;-5.11;75.42;100189.77;1782681;79;20968;-51
2021/12/27 06:50:37;;;;;;;6.03;2.83;;;;;;;-5.09;75.40;100191.09;1782500;79;22280;-51
2021/12/27 06:53:03;;;;;;;6.37;2.10;;;;;;;-5.07;75.39;100197.27;1779690;79;20944;-50
2021/12/27 06:55:30;;;;;;;6.70;3.10;;;;;;;-5.04;75.43;100190.34;1778067;79;21466;-52
2021/12/27 06:57:58;;;;;;;9.73;2.87;;;;;;;-5.03;75.35;100189.50;1748077;80;21085;-52
2021/12/27 07:00:25;;;;;;;5.23;2.70;;;;;;;-5.03;75.30;100195.17;1744437;80;21125;-52
2021/12/27 07:02:51;;;;;;;4.30;2.20;;;;;;;-5.03;75.31;100191.23;1743209;81;21148;-52
2021/12/27 07:05:18;;;;;;;9.60;3.23;;;;;;;-5.03;75.26;100196.06;1741445;80;20977;-51
2021/12/27 07:07:46;;;;;;;7.43;2.43;;;;;;;-5.01;75.29;100190.81;1768784;79;20898;-51
2021/12/27 07:10:15;;;;;;;12.20;3.80;;;;;;;-5.01;75.17;100192.13;1767978;79;20910;-51
2021/12/27 07:12:41;;;;;;;7.30;2.93;;;;;;;-5.01;75.15;100198.70;1770452;79;21124;-51
2021/12/27 07:15:08;;;;;;;7.30;3.47;;;;;;;-5.01;75.15;100200.89;1746634;80;22260;-52
2021/12/27 07:17:34;;;;;;;11.77;4.07;;;;;;;-5.01;75.15;100194.33;1747638;80;21064;-51
2021/12/27 07:20:00;;;;;;;9.27;4.13;;;;;;;-4.99;75.12;100204.88;1738384;81;21458;-51
2021/12/27 07:22:27;;;;;;;9.17;3.60;;;;;;;-4.96;75.11;100210.20;1750108;80;20956;-51
2021/12/27 07:24:53;;;;;;;10.50;4.83;;;;;;;-4.94;75.12;100211.55;1767520;79;21505;-51
2021/12/27 07:27:20;;;;;;;12.03;4.73;;;;;;;-4.93;75.14;100214.17;1745173;80;21122;-52
2021/12/27 07:29:46;;;;;;;10.90;4.97;;;;;;;-4.89;75.13;100221.28;1737579;81;21095;-52
2021/12/27 07:32:12;;;;;;;8.47;3.27;;;;;;;-4.83;75.08;100226.65;1735796;81;21070;-52
2021/12/27 07:34:39;;;;;;;8.37;4.43;;;;;;;-4.82;75.12;100224.48;1737314;81;21087;-52
2021/12/27 07:37:07;;;;;;;6.27;3.10;;;;;;;-4.81;75.07;100222.75;1738531;81;21016;-51
2021/12/27 07:39:33;;;;;;;12.23;6.33;;;;;;;-4.81;75.13;100227.58;1739486;81;21133;-51
2021/12/27 07:42:00;;;;;;;11.87;5.50;;;;;;;-4.82;75.14;100228.85;1740271;81;21692;-52
2021/12/27 07:44:26;;;;;;;12.77;4.77;;;;;;;-4.80;75.16;100222.78;1733467;81;21114;-51
2021/12/27 07:46:53;;;;;;;13.87;5.27;;;;;;;-4.76;75.07;100224.60;1740617;80;21045;-51
2021/12/27 07:49:20;;;;;;;12.57;5.53;;;;;;;-4.76;75.05;100227.66;1737333;81;21080;-51
2021/12/27 07:51:46;;;;;;;13.20;5.20;;;;;;;-4.76;75.05;100218.46;1736061;81;21567;-51
2021/12/27 07:54:12;;;;;;;11.20;4.87;;;;;;;-4.76;75.05;100219.77;1738491;81;21579;-51
2021/12/27 07:56:39;;;;;;;13.10;4.93;;;;;;;-4.78;75.08;100214.52;1737290;81;21080;-52
2021/12/27 07:59:05;;;;;;;13.37;5.73;;;;;;;-4.80;75.09;100224.09;1735621;81;21056;-51
2021/12/27 08:01:34;;;;;;;10.77;5.67;;;;;;;-4.80;75.14;100223.21;1740300;81;21170;-51
2021/12/27 08:04:01;;;;;;;12.63;5.80;;;;;;;-4.80;75.23;100226.73;1735127;81;21146;-51
2021/12/27 08:06:27;;;;;;;17.37;6.40;;;;;;;-4.76;75.28;100226.34;1736560;81;21115;-52
2021/12/27 08:08:54;;;;;;;13.13;5.97;;;;;;;-4.75;75.30;100219.81;1760486;79;21045;-52
2021/12/27 08:11:20;;;;;;;16.10;6.87;;;;;;;-4.72;75.26;100226.45;1746673;80;21397;-52
2021/12/27 08:13:48;;;;;;;19.53;7.90;;;;;;;-4.71;75.23;100227.34;1732017;81;21131;-52
2021/12/27 08:16:15;;;;;;;22.40;13.03;;;;;;;-4.70;75.20;100227.80;1742234;80;21520;-51
2021/12/27 08:18:41;;;;;;;18.27;9.47;;;;;;;-4.69;75.27;100228.27;1740258;81;21053;-52
2021/12/27 08:21:08;;;;;;;15.80;6.97;;;;;;;-4.67;75.37;100229.16;1734487;81;21089;-51
2021/12/27 08:23:34;;;;;;;10.20;5.73;;;;;;;-4.68;75.38;100231.36;1742159;80;21057;-51
2021/12/27 08:26:02;;;;;;;16.70;6.97;;;;;;;-4.63;75.36;100231.89;1769260;79;21314;-52
2021/12/27 08:28:28;;;;;;;15.30;7.40;;;;;;;-4.61;75.25;100229.30;1765974;79;21207;-51
2021/12/27 08:30:55;;;;;;;13.83;6.97;;;;;;;-4.60;75.21;100235.02;1745391;80;21623;-52
2021/12/27 08:33:21;;;;;;;17.03;7.30;;;;;;;-4.62;75.22;100238.03;1738670;81;21136;-52
2021/12/27 08:35:48;;;;;;;16.10;7.90;;;;;;;-4.59;75.24;100240.70;1736594;81;21138;-51
2021/12/27 08:38:16;;;;;;;15.83;8.07;;;;;;;-4.57;75.23;100237.27;1737235;81;21135;-52
2021/12/27 08:40:43;;;;;;;16.50;7.30;;;;;;;-4.52;75.17;100236.48;1747260;80;21390;-52
2021/12/27 08:43:09;;;;;;;16.93;8.53;;;;;;;-4.50;75.04;100231.69;1748210;80;20879;-51
2021/12/27 08:45:36;;;;;;;11.37;6.30;;;;;;;-4.52;75.05;100228.17;1750541;80;21597;-51
2021/12/27 08:48:03;;;;;;;15.17;7.00;;;;;;;-4.50;74.97;100222.92;1748355;80;21243;-52
2021/12/27 08:50:30;;;;;;;20.03;8.13;;;;;;;-4.51;74.99;100222.06;1730744;81;21097;-52
2021/12/27 08:52:56;;;;;;;16.73;7.43;;;;;;;-4.52;74.97;100219.41;1766595;79;21154;-52
2021/12/27 08:55:22;;;;;;;15.70;7.03;;;;;;;-4.50;74.96;100213.72;1742376;80;21053;-51
2021/12/27 08:57:49;;;;;;;21.80;9.47;;;;;;;-4.50;74.90;100222.92;1731596;81;21043;-52
2021/12/27 09:00:16;;;;;;;16.43;7.00;;;;;;;-4.52;74.91;100228.59;1735803;81;21736;-52
2021/12/27 09:02:44;;;;;;;15.20;6.73;;;;;;;-4.53;74.94;100218.94;1767109;79;21419;-51
2021/12/27 09:05:10;;;;;;;11.53;5.63;;;;;;;-4.51;74.97;100218.12;1759861;79;22439;-51
2021/12/27 09:07:36;;;;;;;12.70;5.63;;;;;;;-4.50;74.98;100216.35;1750095;80;21072;-51
2021/12/27 09:10:04;;;;;;;13.53;5.67;;;;;;;-4.49;74.98;100213.77;1747988;80;21041;-51
2021/12/27 09:12:30;;;;;;;15.80;7.53;;;;;;;-4.47;74.93;100219.94;1749059;80;20923;-52
2021/12/27 09:14:57;;;;;;;17.90;8.43;;;;;;;-4.47;74.80;100215.11;1748008;80;20904;-51
2021/12/27 09:17:23;;;;;;;14.30;6.63;;;;;;;-4.47;74.81;100209.42;1767910;79;21145;-52
2021/12/27 09:19:50;;;;;;;14.07;6.03;;;;;;;-4.44;74.90;100205.55;1768560;79;20895;-52
2021/12/27 09:22:18;;;;;;;14.30;6.53;;;;;;;-4.40;74.81;100197.28;1753496;80;20961;-52
2021/12/27 09:24:45;;;;;;;13.30;7.00;;;;;;;-4.41;74.82;100199.45;1754050;80;21372;-52
2021/12/27 09:27:13;;;;;;;18.33;7.67;;;;;;;-4.40;74.90;100194.66;1763479;79;20946;-51
2021/12/27 09:29:42;;;;;;;12.20;6.13;;;;;;;-4.39;74.89;100198.62;1737016;81;21841;-52
2021/12/27 09:32:08;;;;;;;16.90;6.40;;;;;;;-4.36;74.89;100205.70;1743645;81;20969;-52
2021/12/27 09:34:34;;;;;;;14.43;5.27;;;;;;;-4.33;74.85;100200.05;1737752;81;21092;-51
2021/12/27 09:37:01;;;;;;;13.37;6.70;;;;;;;-4.30;74.85;100198.80;1740835;81;21383;-52
2021/12/27 09:39:27;;;;;;;9.87;4.77;;;;;;;-4.29;74.78;100200.58;1741180;81;21483;-52
2021/12/27 09:41:53;;;;;;;11.97;5.13;;;;;;;-4.30;74.76;100205.80;1757898;79;21136;-51
2021/12/27 09:44:20;;;;;;;10.27;5.43;;;;;;;-4.32;74.82;100212.77;1762187;79;21111;-51
2021/12/27 09:46:46;;;;;;;10.20;5.50;;;;;;;-4.33;74.83;100214.93;1756595;80;21110;-52
2021/12/27 09:49:14;;;;;;;11.07;4.73;;;;;;;-4.32;74.82;100218.02;1761388;79;21073;-52
2021/12/27 09:51:40;;;;;;;15.80;5.67;;;;;;;-4.31;74.70;100216.73;1757918;80;20907;-52
2021/12/27 09:54:07;;;;;;;10.40;5.30;;;;;;;-4.31;74.69;100217.16;1762654;79;21104;-52
2021/12/27 09:56:34;;;;;;;11.93;4.80;;;;;;;-4.29;74.68;100215.45;1759316;79;20998;-52
2021/12/27 09:59:00;;;;;;;10.57;4.87;;;;;;;-4.29;74.64;100220.28;1740542;81;21096;-51
2021/12/27 10:01:27;;;;;;;12.33;5.70;;;;;;;-4.25;74.60;100214.21;1736100;81;21084;-52
2021/12/27 10:03:59;;;;;;;17.00;7.53;;;;;;;-4.24;74.47;100214.67;1741103;80;21140;-52
2021/12/27 10:06:26;;;;;;;13.27;6.23;;;;;;;-4.25;74.35;100219.47;1735809;81;22370;-50
2021/12/27 10:09:00;;;;;;;9.40;4.40;;;;;;;-4.26;74.33;100215.09;1749172;80;21005;-50
2021/12/27 10:11:33;;;;;;;10.03;4.57;;;;;;;-4.28;74.37;100215.49;1757202;80;21094;-52
2021/12/27 10:14:16;;;;;;;10.10;4.05;;;;;;;-4.30;74.32;100213.26;1743120;81;20986;-52
2021/12/27 10:16:54;;;;;;;10.83;5.17;;;;;;;-4.30;74.26;100217.63;1745834;80;21092;-52
2021/12/27 10:19:22;;;;;;;13.20;5.73;;;;;;;-4.30;74.34;100217.20;1731563;81;21121;-51
2021/12/27 10:21:51;;;;;;;11.13;5.73;;;;;;;-4.28;74.40;100219.86;1749099;80;21310;-51
2021/12/27 10:24:21;;;;;;;14.30;6.83;;;;;;;-4.27;74.42;100217.70;1766969;79;21331;-51
2021/12/27 10:26:49;;;;;;;9.90;4.57;;;;;;;-4.26;74.39;100220.36;1746624;80;20993;-51
2021/12/27 10:29:19;;;;;;;5.13;2.33;;;;;;;-4.28;74.40;100223.80;1765002;79;21045;-51
2021/12/27 10:32:06;;;;;;;9.33;4.40;;;;;;;-4.30;74.45;100220.25;1747928;80;21810;-51
2021/12/27 10:34:45;;;;;;;8.93;2.50;;;;;;;-4.33;74.47;100225.44;1742828;81;21033;-51
2021/12/27 10:37:20;;;;;;;8.70;4.03;;;;;;;-4.37;74.57;100224.52;1747795;81;21065;-52
2021/12/27 10:39:54;;;;;;;9.15;3.92;;;;;;;-4.37;74.67;100215.75;1744688;80;21095;-51
2021/12/27 10:42:24;;;;;;;11.13;5.40;;;;;;;-4.37;74.68;100227.57;1748383;81;21132;-52
2021/12/27 10:44:54;;;;;;;6.00;3.37;;;;;;;-4.40;74.76;100219.62;1747460;81;21123;-51
2021/12/27 10:47:39;;;;;;;10.57;4.17;;;;;;;-4.40;74.80;100229.70;1748392;79;21316;-52
2021/12/27 10:50:27;;;;;;;8.23;3.73;;;;;;;-4.38;74.73;100217.91;1747339;81;21037;-51
2021/12/27 10:53:01;;;;;;;9.20;2.80;;;;;;;-4.35;74.69;100216.67;1747748;80;21712;-50
2021/12/27 10:55:39;;;;;;;8.03;3.73;;;;;;;-4.35;74.78;100227.18;1761891;79;21104;-51
2021/12/27 10:58:23;;;;;;;9.73;4.10;;;;;;;-4.33;74.78;100221.08;1733603;81;21162;-51
2021/12/27 11:01:03;;;;;;;7.33;3.47;;;;;;;-4.31;74.80;100227.67;1768152;79;21083;-51
2021/12/27 11:03:37;;;;;;;11.27;5.07;;;;;;;-4.30;74.71;100221.14;1769478;79;21042;-50
2021/12/27 11:06:07;;;;;;;8.23;3.73;;;;;;;-4.31;74.78;100216.73;1764939;79;21071;-51
2021/12/27 11:08:38;;;;;;;6.50;2.97;;;;;;;-4.29;74.86;100219.40;1746947;80;21096;-50
2021/12/27 11:11:05;;;;;;;11.50;3.90;;;;;;;-4.28;74.80;100223.80;1748123;80;21178;-50
2021/12/27 11:13:32;;;;;;;12.10;4.17;;;;;;;-4.30;74.76;100222.88;1766928;79;20902;-50
2021/12/27 11:15:59;;;;;;;10.47;5.07;;;;;;;-4.31;74.81;100221.99;1746215;80;21061;-50
2021/12/27 11:18:25;;;;;;;15.50;5.17;;;;;;;-4.33;74.89;100218.88;1740892;80;20943;-51
2021/12/27 11:20:56;;;;;;;9.70;4.63;;;;;;;-4.32;74.91;100215.39;1755414;80;20998;-51
2021/12/27 11:23:23;;;;;;;5.33;3.07;;;;;;;-4.34;74.92;100211.88;1741667;81;21141;-51
2021/12/27 11:26:05;;;;;;;11.17;3.83;;;;;;;-4.33;74.91;100210.56;1741805;81;20965;-51
2021/12/27 11:28:38;;;;;;;12.90;4.40;;;;;;;-4.32;74.87;100208.39;1740513;81;21056;-51
2021/12/27 11:31:26;;;;;;;8.80;4.10;;;;;;;-4.30;74.86;100205.38;1743147;80;21094;-51
2021/12/27 11:34:04;;;;;;;8.37;3.13;;;;;;;-4.30;74.80;100211.05;1761409;79;21053;-50